sensor_id;sensor_type;location;lat;lon;timestamp;temperature;humidity
24085;DHT22;12268;52.110;5.548;2023-04-25T00:00:24;10.40;99.90
24085;DHT22;12268;52.110;5.548;2023-04-25T00:02:50;10.30;99.90
24085;DHT22;12268;52.110;5.548;2023-04-25T00:05:16;10.20;99.90
24085;DHT22;12268;52.110;5.548;2023-04-25T00:07:41;10.10;99.90
24085;DHT22;12268;52.110;5.548;2023-04-25T00:10:09;10.10;99.90
24085;DHT22;12268;52.110;5.548;2023-04-25T00:12:34;9.90;99.90
24085;DHT22;12268;52.110;5.548;2023-04-25T00:15:01;9.80;99.90
24085;DHT22;12268;52.110;5.548;2023-04-25T00:17:27;9.60;99.90
24085;DHT22;12268;52.110;5.548;2023-04-25T00:19:53;9.40;99.90
24085;DHT22;12268;52.110;5.548;2023-04-25T00:22:18;9.20;99.90
24085;DHT22;12268;52.110;5.548;2023-04-25T00:24:44;9.00;99.90
24085;DHT22;12268;52.110;5.548;2023-04-25T00:27:09;8.80;99.90
24085;DHT22;12268;52.110;5.548;2023-04-25T00:29:35;8.60;99.90
24085;DHT22;12268;52.110;5.548;2023-04-25T00:32:01;8.60;99.90
24085;DHT22;12268;52.110;5.548;2023-04-25T00:34:27;8.80;99.90
24085;DHT22;12268;52.110;5.548;2023-04-25T00:36:52;9.00;99.90
24085;DHT22;12268;52.110;5.548;2023-04-25T00:39:18;9.10;99.90
24085;DHT22;12268;52.110;5.548;2023-04-25T00:41:44;9.10;99.90
24085;DHT22;12268;52.110;5.548;2023-04-25T00:44:11;9.00;99.90
24085;DHT22;12268;52.110;5.548;2023-04-25T00:46:38;9.10;99.90
24085;DHT22;12268;52.110;5.548;2023-04-25T00:49:04;8.90;99.90
24085;DHT22;12268;52.110;5.548;2023-04-25T00:51:30;9.10;99.90
24085;DHT22;12268;52.110;5.548;2023-04-25T00:53:58;9.20;99.90
24085;DHT22;12268;52.110;5.548;2023-04-25T00:56:23;9.20;99.90
24085;DHT22;12268;52.110;5.548;2023-04-25T00:58:49;9.30;99.90
24085;DHT22;12268;52.110;5.548;2023-04-25T01:01:18;9.20;99.90
24085;DHT22;12268;52.110;5.548;2023-04-25T01:03:45;9.40;99.90
24085;DHT22;12268;52.110;5.548;2023-04-25T01:06:12;9.50;99.90
24085;DHT22;12268;52.110;5.548;2023-04-25T01:08:39;9.50;99.90
24085;DHT22;12268;52.110;5.548;2023-04-25T01:11:05;9.60;99.90
24085;DHT22;12268;52.110;5.548;2023-04-25T01:13:31;9.70;99.90
24085;DHT22;12268;52.110;5.548;2023-04-25T01:15:58;9.80;99.90
24085;DHT22;12268;52.110;5.548;2023-04-25T01:18:24;9.70;99.90
24085;DHT22;12268;52.110;5.548;2023-04-25T01:20:51;9.70;99.90
24085;DHT22;12268;52.110;5.548;2023-04-25T01:23:16;9.70;99.90
24085;DHT22;12268;52.110;5.548;2023-04-25T01:25:42;9.70;99.90
24085;DHT22;12268;52.110;5.548;2023-04-25T01:28:08;9.60;99.90
24085;DHT22;12268;52.110;5.548;2023-04-25T01:30:34;9.60;99.90
24085;DHT22;12268;52.110;5.548;2023-04-25T01:33:00;9.50;99.90
24085;DHT22;12268;52.110;5.548;2023-04-25T01:35:26;9.40;99.90
24085;DHT22;12268;52.110;5.548;2023-04-25T01:37:52;9.50;99.90
24085;DHT22;12268;52.110;5.548;2023-04-25T01:40:19;9.40;99.90
24085;DHT22;12268;52.110;5.548;2023-04-25T01:42:46;9.40;99.90
24085;DHT22;12268;52.110;5.548;2023-04-25T01:45:12;9.40;99.90
24085;DHT22;12268;52.110;5.548;2023-04-25T01:47:38;9.20;99.90
24085;DHT22;12268;52.110;5.548;2023-04-25T05:59:29;11.70;99.90
24085;DHT22;12268;52.110;5.548;2023-04-25T06:01:54;11.70;99.90
24085;DHT22;12268;52.110;5.548;2023-04-25T06:04:20;12.00;99.90
24085;DHT22;12268;52.110;5.548;2023-04-25T06:06:45;12.10;99.90
24085;DHT22;12268;52.110;5.548;2023-04-25T06:09:11;12.20;99.90
24085;DHT22;12268;52.110;5.548;2023-04-25T06:11:36;12.30;99.90
24085;DHT22;12268;52.110;5.548;2023-04-25T06:14:02;12.30;99.90
24085;DHT22;12268;52.110;5.548;2023-04-25T06:16:28;12.30;99.90
24085;DHT22;12268;52.110;5.548;2023-04-25T06:18:53;12.10;99.90
24085;DHT22;12268;52.110;5.548;2023-04-25T06:21:19;12.30;99.90
24085;DHT22;12268;52.110;5.548;2023-04-25T06:23:44;12.40;99.90
24085;DHT22;12268;52.110;5.548;2023-04-25T06:26:10;12.50;99.90
24085;DHT22;12268;52.110;5.548;2023-04-25T06:28:35;12.50;99.90
24085;DHT22;12268;52.110;5.548;2023-04-25T06:31:01;12.60;99.90
24085;DHT22;12268;52.110;5.548;2023-04-25T06:33:26;12.80;99.90
24085;DHT22;12268;52.110;5.548;2023-04-25T06:35:52;12.90;99.90
24085;DHT22;12268;52.110;5.548;2023-04-25T06:38:18;13.10;99.90
24085;DHT22;12268;52.110;5.548;2023-04-25T06:40:43;13.10;99.90
24085;DHT22;12268;52.110;5.548;2023-04-25T06:43:09;13.40;99.90
24085;DHT22;12268;52.110;5.548;2023-04-25T06:45:35;13.60;99.90
24085;DHT22;12268;52.110;5.548;2023-04-25T06:48:00;13.70;99.90
24085;DHT22;12268;52.110;5.548;2023-04-25T06:50:26;13.80;99.90
24085;DHT22;12268;52.110;5.548;2023-04-25T06:52:51;13.80;99.90
24085;DHT22;12268;52.110;5.548;2023-04-25T06:55:17;13.80;99.90
24085;DHT22;12268;52.110;5.548;2023-04-25T06:57:43;13.90;99.90
24085;DHT22;12268;52.110;5.548;2023-04-25T07:00:08;13.70;99.90
24085;DHT22;12268;52.110;5.548;2023-04-25T07:02:35;13.80;99.90
24085;DHT22;12268;52.110;5.548;2023-04-25T07:05:01;14.00;99.90
24085;DHT22;12268;52.110;5.548;2023-04-25T07:07:29;13.80;99.90
24085;DHT22;12268;52.110;5.548;2023-04-25T07:09:55;13.90;99.90
24085;DHT22;12268;52.110;5.548;2023-04-25T07:12:21;14.10;99.90
24085;DHT22;12268;52.110;5.548;2023-04-25T07:14:46;14.10;99.90
24085;DHT22;12268;52.110;5.548;2023-04-25T07:17:12;14.30;99.90
24085;DHT22;12268;52.110;5.548;2023-04-25T07:19:37;14.60;99.90
24085;DHT22;12268;52.110;5.548;2023-04-25T07:22:05;14.80;99.90
24085;DHT22;12268;52.110;5.548;2023-04-25T07:24:31;15.00;99.90
24085;DHT22;12268;52.110;5.548;2023-04-25T07:26:56;15.40;99.90
24085;DHT22;12268;52.110;5.548;2023-04-25T07:29:23;16.50;99.90
24085;DHT22;12268;52.110;5.548;2023-04-25T07:31:49;17.60;99.90
24085;DHT22;12268;52.110;5.548;2023-04-25T07:34:14;18.10;99.90
24085;DHT22;12268;52.110;5.548;2023-04-25T07:36:41;19.10;99.90
24085;DHT22;12268;52.110;5.548;2023-04-25T07:39:07;20.80;99.90
24085;DHT22;12268;52.110;5.548;2023-04-25T07:41:34;22.00;99.90
24085;DHT22;12268;52.110;5.548;2023-04-25T07:44:00;22.40;99.90
24085;DHT22;12268;52.110;5.548;2023-04-25T07:46:25;22.10;99.90
24085;DHT22;12268;52.110;5.548;2023-04-25T07:48:51;21.50;99.90
24085;DHT22;12268;52.110;5.548;2023-04-25T07:51:17;20.40;99.80
24085;DHT22;12268;52.110;5.548;2023-04-25T07:53:45;19.70;99.90
24085;DHT22;12268;52.110;5.548;2023-04-25T07:56:11;19.10;99.90
24085;DHT22;12268;52.110;5.548;2023-04-25T07:58:36;18.70;99.90
24085;DHT22;12268;52.110;5.548;2023-04-25T08:01:02;18.20;99.90
24085;DHT22;12268;52.110;5.548;2023-04-25T08:03:28;17.70;99.90
24085;DHT22;12268;52.110;5.548;2023-04-25T08:05:53;17.60;99.90
24085;DHT22;12268;52.110;5.548;2023-04-25T08:08:19;17.20;99.90
24085;DHT22;12268;52.110;5.548;2023-04-25T08:10:44;17.00;99.90
24085;DHT22;12268;52.110;5.548;2023-04-25T08:13:10;16.80;99.90
24085;DHT22;12268;52.110;5.548;2023-04-25T08:15:35;16.60;99.90
24085;DHT22;12268;52.110;5.548;2023-04-25T08:18:01;16.80;99.90
24085;DHT22;12268;52.110;5.548;2023-04-25T08:20:26;17.30;99.90
24085;DHT22;12268;52.110;5.548;2023-04-25T08:22:52;17.50;99.90
24085;DHT22;12268;52.110;5.548;2023-04-25T08:25:17;17.70;99.90
24085;DHT22;12268;52.110;5.548;2023-04-25T08:27:43;18.20;99.90
24085;DHT22;12268;52.110;5.548;2023-04-25T08:30:09;18.70;99.90
24085;DHT22;12268;52.110;5.548;2023-04-25T08:32:34;19.40;99.90
24085;DHT22;12268;52.110;5.548;2023-04-25T08:35:03;19.20;99.90
24085;DHT22;12268;52.110;5.548;2023-04-25T08:37:29;18.70;99.90
24085;DHT22;12268;52.110;5.548;2023-04-25T08:39:54;18.00;99.90
24085;DHT22;12268;52.110;5.548;2023-04-25T08:42:21;16.90;99.90
24085;DHT22;12268;52.110;5.548;2023-04-25T08:44:48;16.00;99.90
24085;DHT22;12268;52.110;5.548;2023-04-25T08:47:14;15.20;99.90
24085;DHT22;12268;52.110;5.548;2023-04-25T08:49:45;14.80;99.90
24085;DHT22;12268;52.110;5.548;2023-04-25T08:52:13;14.90;99.90
24085;DHT22;12268;52.110;5.548;2023-04-25T08:54:43;15.30;99.90
24085;DHT22;12268;52.110;5.548;2023-04-25T08:57:09;15.60;99.90
24085;DHT22;12268;52.110;5.548;2023-04-25T08:59:35;16.50;99.90
24085;DHT22;12268;52.110;5.548;2023-04-25T09:02:02;17.00;99.90
24085;DHT22;12268;52.110;5.548;2023-04-25T09:04:31;17.40;99.90
24085;DHT22;12268;52.110;5.548;2023-04-25T09:06:56;17.90;99.90
24085;DHT22;12268;52.110;5.548;2023-04-25T09:09:23;19.10;99.90
24085;DHT22;12268;52.110;5.548;2023-04-25T09:11:49;18.90;99.90
24085;DHT22;12268;52.110;5.548;2023-04-25T09:14:15;20.10;99.90
24085;DHT22;12268;52.110;5.548;2023-04-25T09:19:23;22.40;98.40
24085;DHT22;12268;52.110;5.548;2023-04-25T09:21:54;22.80;95.40
24085;DHT22;12268;52.110;5.548;2023-04-25T09:24:39;23.60;94.10
24085;DHT22;12268;52.110;5.548;2023-04-25T09:27:11;24.40;94.20
24085;DHT22;12268;52.110;5.548;2023-04-25T09:29:39;23.80;93.60
24085;DHT22;12268;52.110;5.548;2023-04-25T09:34:42;22.10;92.90
24085;DHT22;12268;52.110;5.548;2023-04-25T09:37:11;22.20;91.60
24085;DHT22;12268;52.110;5.548;2023-04-25T09:39:40;24.90;90.50
24085;DHT22;12268;52.110;5.548;2023-04-25T09:42:06;27.20;87.90
24085;DHT22;12268;52.110;5.548;2023-04-25T09:44:31;28.80;75.40
24085;DHT22;12268;52.110;5.548;2023-04-25T09:46:57;29.30;71.50
24085;DHT22;12268;52.110;5.548;2023-04-25T09:49:25;28.00;67.10
24085;DHT22;12268;52.110;5.548;2023-04-25T09:51:57;26.50;64.70
24085;DHT22;12268;52.110;5.548;2023-04-25T09:54:26;23.90;72.50
24085;DHT22;12268;52.110;5.548;2023-04-25T09:56:53;21.90;77.60
24085;DHT22;12268;52.110;5.548;2023-04-25T09:59:22;20.20;84.10
24085;DHT22;12268;52.110;5.548;2023-04-25T10:01:52;18.20;87.80
24085;DHT22;12268;52.110;5.548;2023-04-25T10:04:24;16.80;93.30
24085;DHT22;12268;52.110;5.548;2023-04-25T10:06:52;15.90;95.70
24085;DHT22;12268;52.110;5.548;2023-04-25T10:09:20;15.50;98.20
24085;DHT22;12268;52.110;5.548;2023-04-25T10:11:46;15.20;98.20
24085;DHT22;12268;52.110;5.548;2023-04-25T10:14:13;15.10;99.70
24085;DHT22;12268;52.110;5.548;2023-04-25T10:16:40;15.30;99.10
24085;DHT22;12268;52.110;5.548;2023-04-25T10:19:07;15.20;99.40
24085;DHT22;12268;52.110;5.548;2023-04-25T10:21:33;15.60;99.60
24085;DHT22;12268;52.110;5.548;2023-04-25T10:24:00;17.00;99.90
24085;DHT22;12268;52.110;5.548;2023-04-25T10:26:27;19.40;97.10
24085;DHT22;12268;52.110;5.548;2023-04-25T10:31:23;21.30;92.10
24085;DHT22;12268;52.110;5.548;2023-04-25T10:33:48;21.20;92.30
24085;DHT22;12268;52.110;5.548;2023-04-25T10:36:18;22.40;87.90
24085;DHT22;12268;52.110;5.548;2023-04-25T10:38:44;23.60;83.00
24085;DHT22;12268;52.110;5.548;2023-04-25T10:41:11;25.20;81.00
24085;DHT22;12268;52.110;5.548;2023-04-25T10:43:39;26.20;79.20
24085;DHT22;12268;52.110;5.548;2023-04-25T10:46:19;27.40;76.20
24085;DHT22;12268;52.110;5.548;2023-04-25T10:48:57;29.00;69.50
24085;DHT22;12268;52.110;5.548;2023-04-25T10:51:30;30.20;66.30
24085;DHT22;12268;52.110;5.548;2023-04-25T10:54:03;30.80;58.80
24085;DHT22;12268;52.110;5.548;2023-04-25T10:56:31;29.90;56.10
24085;DHT22;12268;52.110;5.548;2023-04-25T10:59:17;27.90;57.90
24085;DHT22;12268;52.110;5.548;2023-04-25T11:01:45;27.40;63.90
24085;DHT22;12268;52.110;5.548;2023-04-25T11:09:33;30.70;59.60
24085;DHT22;12268;52.110;5.548;2023-04-25T11:11:59;32.40;55.00
24085;DHT22;12268;52.110;5.548;2023-04-25T11:14:26;33.60;53.00
24085;DHT22;12268;52.110;5.548;2023-04-25T11:16:58;34.80;51.20
24085;DHT22;12268;52.110;5.548;2023-04-25T11:19:26;36.10;52.90
24085;DHT22;12268;52.110;5.548;2023-04-25T11:21:56;36.50;48.40
24085;DHT22;12268;52.110;5.548;2023-04-25T11:24:29;34.60;46.50
24085;DHT22;12268;52.110;5.548;2023-04-25T11:26:55;30.10;49.30
24085;DHT22;12268;52.110;5.548;2023-04-25T11:29:26;25.90;53.20
24085;DHT22;12268;52.110;5.548;2023-04-25T11:31:52;22.10;59.30
24085;DHT22;12268;52.110;5.548;2023-04-25T11:34:18;19.20;68.90
24085;DHT22;12268;52.110;5.548;2023-04-25T11:36:45;16.80;81.00
24085;DHT22;12268;52.110;5.548;2023-04-25T11:39:11;14.80;93.20
24085;DHT22;12268;52.110;5.548;2023-04-25T11:41:38;13.40;99.90
24085;DHT22;12268;52.110;5.548;2023-04-25T11:44:04;12.60;99.90
24085;DHT22;12268;52.110;5.548;2023-04-25T11:46:30;12.10;99.90
24085;DHT22;12268;52.110;5.548;2023-04-25T11:48:55;12.10;99.90
24085;DHT22;12268;52.110;5.548;2023-04-25T11:51:21;12.10;99.90
24085;DHT22;12268;52.110;5.548;2023-04-25T11:53:47;12.20;99.90
24085;DHT22;12268;52.110;5.548;2023-04-25T11:56:13;12.50;99.90
24085;DHT22;12268;52.110;5.548;2023-04-25T11:58:56;12.80;99.90
24085;DHT22;12268;52.110;5.548;2023-04-25T12:01:32;13.20;99.90
24085;DHT22;12268;52.110;5.548;2023-04-25T12:03:58;13.10;99.90
24085;DHT22;12268;52.110;5.548;2023-04-25T12:06:37;13.20;99.90
24085;DHT22;12268;52.110;5.548;2023-04-25T12:09:07;13.50;99.90
24085;DHT22;12268;52.110;5.548;2023-04-25T12:11:44;14.20;99.90
24085;DHT22;12268;52.110;5.548;2023-04-25T12:14:11;15.90;99.90
24085;DHT22;12268;52.110;5.548;2023-04-25T12:16:41;16.70;99.90
24085;DHT22;12268;52.110;5.548;2023-04-25T12:19:07;17.30;99.90
24085;DHT22;12268;52.110;5.548;2023-04-25T17:31:25;14.30;91.40
24085;DHT22;12268;52.110;5.548;2023-04-25T17:33:51;14.10;90.00
24085;DHT22;12268;52.110;5.548;2023-04-25T17:36:17;14.00;88.30
24085;DHT22;12268;52.110;5.548;2023-04-25T17:38:42;13.90;90.10
24085;DHT22;12268;52.110;5.548;2023-04-25T17:41:08;13.70;90.00
24085;DHT22;12268;52.110;5.548;2023-04-25T17:43:35;13.50;90.50
24085;DHT22;12268;52.110;5.548;2023-04-25T17:46:00;13.40;91.50
24085;DHT22;12268;52.110;5.548;2023-04-25T17:48:26;13.20;91.80
24085;DHT22;12268;52.110;5.548;2023-04-25T17:50:52;13.00;92.10
24085;DHT22;12268;52.110;5.548;2023-04-25T17:53:17;13.00;92.80
24085;DHT22;12268;52.110;5.548;2023-04-25T17:55:43;12.90;93.30
24085;DHT22;12268;52.110;5.548;2023-04-25T17:58:09;12.80;93.00
24085;DHT22;12268;52.110;5.548;2023-04-25T18:00:38;12.80;93.10
24085;DHT22;12268;52.110;5.548;2023-04-25T18:03:04;12.90;94.00
24085;DHT22;12268;52.110;5.548;2023-04-25T18:05:29;13.00;93.20
24085;DHT22;12268;52.110;5.548;2023-04-25T18:07:55;12.70;94.20
24085;DHT22;12268;52.110;5.548;2023-04-25T18:10:20;12.70;94.50
24085;DHT22;12268;52.110;5.548;2023-04-25T18:12:46;12.60;95.30
24085;DHT22;12268;52.110;5.548;2023-04-25T18:15:11;12.40;95.90
24085;DHT22;12268;52.110;5.548;2023-04-25T18:17:37;12.30;96.00
24085;DHT22;12268;52.110;5.548;2023-04-25T18:20:08;12.00;96.50
24085;DHT22;12268;52.110;5.548;2023-04-25T18:22:35;11.80;97.00
24085;DHT22;12268;52.110;5.548;2023-04-25T18:25:01;11.70;97.80
24085;DHT22;12268;52.110;5.548;2023-04-25T18:27:28;11.70;97.80
24085;DHT22;12268;52.110;5.548;2023-04-25T18:29:54;11.50;98.50
24085;DHT22;12268;52.110;5.548;2023-04-25T18:32:19;11.40;99.40
24085;DHT22;12268;52.110;5.548;2023-04-25T18:34:45;11.30;99.70
24085;DHT22;12268;52.110;5.548;2023-04-25T18:37:14;11.30;99.90
24085;DHT22;12268;52.110;5.548;2023-04-25T18:39:40;11.20;99.90
24085;DHT22;12268;52.110;5.548;2023-04-25T18:42:06;11.20;99.90
24085;DHT22;12268;52.110;5.548;2023-04-25T18:44:35;11.20;99.90
24085;DHT22;12268;52.110;5.548;2023-04-25T18:47:07;11.10;99.90
24085;DHT22;12268;52.110;5.548;2023-04-25T18:49:34;11.20;99.90
24085;DHT22;12268;52.110;5.548;2023-04-25T18:52:02;11.00;99.90
24085;DHT22;12268;52.110;5.548;2023-04-25T18:54:28;11.00;99.90
24085;DHT22;12268;52.110;5.548;2023-04-25T18:56:53;10.90;99.90
24085;DHT22;12268;52.110;5.548;2023-04-25T18:59:21;10.80;99.90
24085;DHT22;12268;52.110;5.548;2023-04-25T19:01:47;10.80;99.90
24085;DHT22;12268;52.110;5.548;2023-04-25T19:04:14;10.60;99.90
24085;DHT22;12268;52.110;5.548;2023-04-25T19:06:39;10.70;99.90
24085;DHT22;12268;52.110;5.548;2023-04-25T19:09:05;10.80;99.90
24085;DHT22;12268;52.110;5.548;2023-04-25T19:11:32;10.70;99.90
24085;DHT22;12268;52.110;5.548;2023-04-25T19:13:58;10.60;99.90
24085;DHT22;12268;52.110;5.548;2023-04-25T19:16:25;10.60;99.90
24085;DHT22;12268;52.110;5.548;2023-04-25T19:18:53;10.50;99.90
24085;DHT22;12268;52.110;5.548;2023-04-25T19:21:19;10.50;99.90
24085;DHT22;12268;52.110;5.548;2023-04-25T19:23:45;10.50;99.90
24085;DHT22;12268;52.110;5.548;2023-04-25T19:26:11;10.60;99.90
24085;DHT22;12268;52.110;5.548;2023-04-25T19:28:36;10.50;99.90
24085;DHT22;12268;52.110;5.548;2023-04-25T19:31:03;10.40;99.90
24085;DHT22;12268;52.110;5.548;2023-04-25T19:33:29;10.20;99.90
24085;DHT22;12268;52.110;5.548;2023-04-25T19:35:55;10.20;99.90
24085;DHT22;12268;52.110;5.548;2023-04-25T19:38:20;10.20;99.90
24085;DHT22;12268;52.110;5.548;2023-04-25T19:40:46;10.40;99.90
24085;DHT22;12268;52.110;5.548;2023-04-25T19:43:12;10.20;99.90
24085;DHT22;12268;52.110;5.548;2023-04-25T19:45:37;10.20;99.90
24085;DHT22;12268;52.110;5.548;2023-04-25T19:48:03;10.20;99.90
24085;DHT22;12268;52.110;5.548;2023-04-25T19:50:29;10.10;99.90
24085;DHT22;12268;52.110;5.548;2023-04-25T19:52:56;9.90;99.90
24085;DHT22;12268;52.110;5.548;2023-04-25T19:55:21;10.00;99.90
24085;DHT22;12268;52.110;5.548;2023-04-25T19:57:47;10.00;99.90
24085;DHT22;12268;52.110;5.548;2023-04-25T20:00:15;9.80;99.90
24085;DHT22;12268;52.110;5.548;2023-04-25T20:02:42;9.80;99.90
24085;DHT22;12268;52.110;5.548;2023-04-25T20:05:16;9.70;99.90
24085;DHT22;12268;52.110;5.548;2023-04-25T20:07:42;9.70;99.90
24085;DHT22;12268;52.110;5.548;2023-04-25T20:10:09;9.70;99.90
24085;DHT22;12268;52.110;5.548;2023-04-25T20:12:36;9.70;99.90
24085;DHT22;12268;52.110;5.548;2023-04-25T20:15:05;9.60;99.90
24085;DHT22;12268;52.110;5.548;2023-04-25T20:17:31;9.50;99.90
24085;DHT22;12268;52.110;5.548;2023-04-25T20:19:57;9.40;99.90
24085;DHT22;12268;52.110;5.548;2023-04-25T20:22:22;9.40;99.90
24085;DHT22;12268;52.110;5.548;2023-04-25T20:24:49;9.40;99.90
24085;DHT22;12268;52.110;5.548;2023-04-25T20:27:15;9.40;99.90
24085;DHT22;12268;52.110;5.548;2023-04-25T20:29:40;9.40;99.90
24085;DHT22;12268;52.110;5.548;2023-04-25T20:32:06;9.20;99.90
24085;DHT22;12268;52.110;5.548;2023-04-25T20:34:32;9.20;99.90
24085;DHT22;12268;52.110;5.548;2023-04-25T20:36:57;9.10;99.90
24085;DHT22;12268;52.110;5.548;2023-04-25T20:39:23;9.10;99.90
24085;DHT22;12268;52.110;5.548;2023-04-25T20:41:49;9.20;99.90
24085;DHT22;12268;52.110;5.548;2023-04-25T20:44:15;9.10;99.90
24085;DHT22;12268;52.110;5.548;2023-04-25T20:46:41;9.20;99.90
24085;DHT22;12268;52.110;5.548;2023-04-25T20:49:06;9.10;99.90
24085;DHT22;12268;52.110;5.548;2023-04-25T20:51:33;9.00;99.90
24085;DHT22;12268;52.110;5.548;2023-04-25T20:53:59;8.90;99.90
24085;DHT22;12268;52.110;5.548;2023-04-25T20:56:28;8.80;99.90
24085;DHT22;12268;52.110;5.548;2023-04-25T20:58:54;8.80;99.90
24085;DHT22;12268;52.110;5.548;2023-04-25T21:01:21;8.70;99.90
24085;DHT22;12268;52.110;5.548;2023-04-25T21:03:47;8.30;99.90
24085;DHT22;12268;52.110;5.548;2023-04-25T21:06:14;8.20;99.90
24085;DHT22;12268;52.110;5.548;2023-04-25T21:08:40;8.00;99.90
24085;DHT22;12268;52.110;5.548;2023-04-25T21:11:06;7.90;99.90
24085;DHT22;12268;52.110;5.548;2023-04-25T21:13:32;7.90;99.90
24085;DHT22;12268;52.110;5.548;2023-04-25T21:15:58;8.00;99.90
24085;DHT22;12268;52.110;5.548;2023-04-25T21:18:23;8.20;99.90
24085;DHT22;12268;52.110;5.548;2023-04-25T21:20:49;8.30;99.90
24085;DHT22;12268;52.110;5.548;2023-04-25T21:23:15;8.30;99.90
24085;DHT22;12268;52.110;5.548;2023-04-25T21:25:41;8.40;99.90
24085;DHT22;12268;52.110;5.548;2023-04-25T21:28:07;8.40;99.90
24085;DHT22;12268;52.110;5.548;2023-04-25T21:30:33;8.40;99.90
24085;DHT22;12268;52.110;5.548;2023-04-25T21:32:58;8.40;99.90
24085;DHT22;12268;52.110;5.548;2023-04-25T21:35:25;8.40;99.90
24085;DHT22;12268;52.110;5.548;2023-04-25T21:37:51;8.40;99.90
24085;DHT22;12268;52.110;5.548;2023-04-25T21:40:16;8.20;99.90
24085;DHT22;12268;52.110;5.548;2023-04-25T21:42:42;8.00;99.90
24085;DHT22;12268;52.110;5.548;2023-04-25T21:45:10;7.90;99.90
24085;DHT22;12268;52.110;5.548;2023-04-25T21:47:36;7.90;99.90
24085;DHT22;12268;52.110;5.548;2023-04-25T21:50:02;7.80;99.90
24085;DHT22;12268;52.110;5.548;2023-04-25T21:52:28;7.80;99.90
24085;DHT22;12268;52.110;5.548;2023-04-25T21:54:54;7.70;99.90
24085;DHT22;12268;52.110;5.548;2023-04-25T21:57:20;7.50;99.90
24085;DHT22;12268;52.110;5.548;2023-04-25T21:59:48;7.30;99.90
24085;DHT22;12268;52.110;5.548;2023-04-25T22:02:14;7.20;99.90
24085;DHT22;12268;52.110;5.548;2023-04-25T22:04:40;7.20;99.90
24085;DHT22;12268;52.110;5.548;2023-04-25T22:07:09;7.50;99.90
24085;DHT22;12268;52.110;5.548;2023-04-25T22:09:35;7.50;99.90
24085;DHT22;12268;52.110;5.548;2023-04-25T22:12:01;7.50;99.90
24085;DHT22;12268;52.110;5.548;2023-04-25T22:14:27;7.30;99.90
24085;DHT22;12268;52.110;5.548;2023-04-25T22:16:53;7.20;99.90
24085;DHT22;12268;52.110;5.548;2023-04-25T22:19:20;7.20;99.90
24085;DHT22;12268;52.110;5.548;2023-04-25T22:21:45;7.10;99.90
24085;DHT22;12268;52.110;5.548;2023-04-25T22:24:11;7.20;99.90
24085;DHT22;12268;52.110;5.548;2023-04-25T22:26:37;7.30;99.90
24085;DHT22;12268;52.110;5.548;2023-04-25T22:29:02;7.20;99.90
24085;DHT22;12268;52.110;5.548;2023-04-25T22:31:28;7.00;99.90
24085;DHT22;12268;52.110;5.548;2023-04-25T22:33:54;6.90;99.90
24085;DHT22;12268;52.110;5.548;2023-04-25T22:36:19;6.90;99.90
24085;DHT22;12268;52.110;5.548;2023-04-25T22:38:46;6.90;99.90
24085;DHT22;12268;52.110;5.548;2023-04-25T22:41:12;6.80;99.90
24085;DHT22;12268;52.110;5.548;2023-04-25T22:43:37;7.00;99.90
24085;DHT22;12268;52.110;5.548;2023-04-25T22:46:17;7.00;99.90
24085;DHT22;12268;52.110;5.548;2023-04-25T22:48:43;7.10;99.90
24085;DHT22;12268;52.110;5.548;2023-04-25T22:51:10;7.20;99.90
24085;DHT22;12268;52.110;5.548;2023-04-25T22:53:36;7.20;99.90
24085;DHT22;12268;52.110;5.548;2023-04-25T22:56:04;7.10;99.90
24085;DHT22;12268;52.110;5.548;2023-04-25T22:58:30;7.20;99.90
24085;DHT22;12268;52.110;5.548;2023-04-25T23:00:55;7.20;99.90
24085;DHT22;12268;52.110;5.548;2023-04-25T23:03:21;7.10;99.90
24085;DHT22;12268;52.110;5.548;2023-04-25T23:05:47;7.10;99.90
24085;DHT22;12268;52.110;5.548;2023-04-25T23:08:13;7.10;99.90
24085;DHT22;12268;52.110;5.548;2023-04-25T23:10:41;7.00;99.90
24085;DHT22;12268;52.110;5.548;2023-04-25T23:13:07;6.90;99.90
24085;DHT22;12268;52.110;5.548;2023-04-25T23:15:33;6.90;99.90
24085;DHT22;12268;52.110;5.548;2023-04-25T23:17:59;6.90;99.90
24085;DHT22;12268;52.110;5.548;2023-04-25T23:20:25;7.10;99.90
24085;DHT22;12268;52.110;5.548;2023-04-25T23:22:51;7.20;99.90
24085;DHT22;12268;52.110;5.548;2023-04-25T23:25:16;7.20;99.90
24085;DHT22;12268;52.110;5.548;2023-04-25T23:27:43;7.10;99.90
24085;DHT22;12268;52.110;5.548;2023-04-25T23:30:10;7.10;99.90
24085;DHT22;12268;52.110;5.548;2023-04-25T23:32:36;7.10;99.90
24085;DHT22;12268;52.110;5.548;2023-04-25T23:35:02;7.10;99.90
24085;DHT22;12268;52.110;5.548;2023-04-25T23:37:31;6.90;99.90
24085;DHT22;12268;52.110;5.548;2023-04-25T23:39:57;6.90;99.90
24085;DHT22;12268;52.110;5.548;2023-04-25T23:42:22;6.90;99.90
24085;DHT22;12268;52.110;5.548;2023-04-25T23:44:48;6.70;99.90
24085;DHT22;12268;52.110;5.548;2023-04-25T23:47:13;6.60;99.90
24085;DHT22;12268;52.110;5.548;2023-04-25T23:49:44;6.80;99.90
24085;DHT22;12268;52.110;5.548;2023-04-25T23:52:10;6.80;99.90
24085;DHT22;12268;52.110;5.548;2023-04-25T23:54:36;6.70;99.90
